createdAt,value
2018-02-08T00:00:14.134Z,-1.17
2018-02-08T00:02:41.712Z,-1.26
2018-02-08T00:05:09.846Z,-1.26
2018-02-08T00:07:37.783Z,-1.19
2018-02-08T00:10:06.374Z,-1.13
2018-02-08T00:12:33.930Z,-1.16
2018-02-08T00:15:01.549Z,-1.27
2018-02-08T00:17:29.174Z,-1.22
2018-02-08T00:19:56.703Z,-1.24
2018-02-08T00:22:35.902Z,-1.35
2018-02-08T00:25:03.487Z,-1.37
2018-02-08T00:27:30.981Z,-1.37
2018-02-08T00:29:58.613Z,-1.30
2018-02-08T00:32:26.141Z,-1.27
2018-02-08T00:34:53.746Z,-1.34
2018-02-08T00:37:21.706Z,-1.33
2018-02-08T00:39:49.373Z,-1.29
2018-02-08T00:42:17.135Z,-1.37
2018-02-08T00:44:45.719Z,-1.39
2018-02-08T00:47:13.241Z,-1.27
2018-02-08T00:49:40.907Z,-1.32
2018-02-08T00:52:08.395Z,-1.31
2018-02-08T00:54:35.992Z,-1.31
2018-02-08T00:57:03.591Z,-1.29
2018-02-08T00:59:31.168Z,-1.33
2018-02-08T01:01:58.705Z,-1.21
2018-02-08T01:04:26.218Z,-1.26
2018-02-08T01:06:53.746Z,-1.30
2018-02-08T01:09:21.401Z,-1.31
2018-02-08T01:11:49.071Z,-1.25
2018-02-08T01:14:16.629Z,-1.34
2018-02-08T01:16:44.124Z,-1.36
2018-02-08T01:19:11.837Z,-1.24
2018-02-08T01:21:39.349Z,-1.21
2018-02-08T01:24:06.902Z,-1.27
2018-02-08T01:26:34.460Z,-1.26
2018-02-08T01:29:02.028Z,-1.17
2018-02-08T01:31:29.552Z,-1.13
2018-02-08T01:33:57.238Z,-1.14
2018-02-08T01:36:24.793Z,-1.33
2018-02-08T01:38:52.433Z,-1.28
2018-02-08T01:41:20.022Z,-1.20
2018-02-08T01:43:47.617Z,-1.12
2018-02-08T01:46:15.152Z,-1.32
2018-02-08T01:48:42.726Z,-1.31
2018-02-08T01:51:10.227Z,-1.24
2018-02-08T01:53:37.946Z,-1.25
2018-02-08T01:56:05.442Z,-1.27
2018-02-08T01:58:32.993Z,-1.26
2018-02-08T02:01:00.509Z,-1.24
2018-02-08T02:03:28.139Z,-1.21
2018-02-08T02:05:55.674Z,-1.26
2018-02-08T02:08:23.224Z,-1.29
2018-02-08T02:10:50.781Z,-1.26
2018-02-08T02:13:18.270Z,-1.24
2018-02-08T02:15:45.765Z,-1.22
2018-02-08T02:18:13.288Z,-1.25
2018-02-08T02:20:40.815Z,-1.16
2018-02-08T02:23:08.370Z,-1.24
2018-02-08T02:25:35.891Z,-1.26
2018-02-08T02:28:03.386Z,-1.19
2018-02-08T02:30:30.886Z,-1.17
2018-02-08T02:32:58.447Z,-1.21
2018-02-08T02:35:25.992Z,-1.39
2018-02-08T02:37:54.099Z,-1.44
2018-02-08T02:40:21.617Z,-1.42
2018-02-08T02:42:49.158Z,-1.44
2018-02-08T02:45:16.656Z,-1.52
2018-02-08T02:47:44.209Z,-1.52
2018-02-08T02:50:11.761Z,-1.48
2018-02-08T02:52:39.262Z,-1.64
2018-02-08T02:55:06.905Z,-1.54
2018-02-08T02:57:34.421Z,-1.50
2018-02-08T03:00:02.035Z,-1.72
2018-02-08T03:02:29.531Z,-1.78
2018-02-08T03:04:57.297Z,-1.81
2018-02-08T03:07:24.821Z,-1.86
2018-02-08T03:09:52.359Z,-1.93
2018-02-08T03:12:20.022Z,-2.09
2018-02-08T03:14:47.590Z,-2.13
2018-02-08T03:17:16.004Z,-2.12
2018-02-08T03:19:43.629Z,-2.05
2018-02-08T03:22:11.162Z,-2.17
2018-02-08T03:24:38.670Z,-2.07
2018-02-08T03:27:06.188Z,-2.12
2018-02-08T03:29:33.706Z,-2.26
2018-02-08T03:32:01.332Z,-2.25
2018-02-08T03:34:28.904Z,-2.23
2018-02-08T03:36:56.547Z,-2.34
2018-02-08T03:39:24.093Z,-2.38
2018-02-08T03:41:51.584Z,-2.42
2018-02-08T03:44:19.125Z,-2.41
2018-02-08T03:46:46.703Z,-2.42
2018-02-08T03:49:14.213Z,-2.54
2018-02-08T03:51:41.811Z,-2.46
2018-02-08T03:54:09.351Z,-2.56
2018-02-08T03:56:37.487Z,-2.60
2018-02-08T03:59:04.981Z,-2.65
2018-02-08T04:01:32.517Z,-2.71
2018-02-08T04:04:00.040Z,-2.72
2018-02-08T04:06:27.554Z,-2.77
2018-02-08T04:08:55.570Z,-2.76
2018-02-08T04:11:23.081Z,-2.74
2018-02-08T04:13:50.663Z,-2.85
2018-02-08T04:16:18.159Z,-2.95
2018-02-08T04:18:45.704Z,-3.07
2018-02-08T04:21:13.352Z,-3.12
2018-02-08T04:23:40.895Z,-3.07
2018-02-08T04:26:08.515Z,-3.01
2018-02-08T04:28:36.019Z,-2.93
2018-02-08T04:31:03.563Z,-2.94
2018-02-08T04:33:31.062Z,-2.98
2018-02-08T04:35:58.587Z,-2.97
2018-02-08T04:38:37.759Z,-2.97
2018-02-08T04:41:17.711Z,-3.00
2018-02-08T04:43:57.088Z,-2.99
2018-02-08T04:46:36.483Z,-3.01
2018-02-08T04:49:04.019Z,-3.17
2018-02-08T04:51:33.240Z,-3.29
2018-02-08T04:54:00.809Z,-3.33
2018-02-08T04:56:28.335Z,-3.26
2018-02-08T04:58:55.943Z,-3.27
2018-02-08T05:01:23.476Z,-3.21
2018-02-08T05:03:50.973Z,-3.21
2018-02-08T05:06:18.521Z,-3.30
2018-02-08T05:08:46.117Z,-3.34
2018-02-08T05:11:13.652Z,-3.34
2018-02-08T05:13:41.206Z,-3.34
2018-02-08T05:16:08.701Z,-3.44
2018-02-08T05:18:36.235Z,-3.48
2018-02-08T05:21:03.799Z,-3.53
2018-02-08T05:23:31.401Z,-3.47
2018-02-08T05:25:58.893Z,-3.51
2018-02-08T05:28:26.429Z,-3.68
2018-02-08T05:30:53.952Z,-3.72
2018-02-08T05:33:21.476Z,-3.77
2018-02-08T05:35:49.002Z,-3.81
2018-02-08T05:38:16.526Z,-3.86
2018-02-08T05:40:44.135Z,-3.91
2018-02-08T05:43:11.649Z,-3.97
2018-02-08T05:45:39.174Z,-3.98
2018-02-08T05:48:12.609Z,-4.01
2018-02-08T05:50:40.148Z,-4.05
2018-02-08T05:53:13.099Z,-4.07
2018-02-08T05:55:40.619Z,-4.07
2018-02-08T05:58:08.257Z,-4.06
2018-02-08T06:00:35.793Z,-4.13
2018-02-08T06:03:03.299Z,-3.96
2018-02-08T06:05:30.813Z,-4.06
2018-02-08T06:07:58.356Z,-4.09
2018-02-08T06:10:25.847Z,-4.10
2018-02-08T06:12:53.393Z,-4.05
2018-02-08T06:15:20.910Z,-4.09
2018-02-08T06:17:48.476Z,-4.22
2018-02-08T06:20:16.049Z,-4.22
2018-02-08T06:22:43.546Z,-4.13
2018-02-08T06:25:11.104Z,-4.14
2018-02-08T06:27:38.604Z,-4.13
2018-02-08T06:30:06.105Z,-4.15
2018-02-08T06:32:33.643Z,-4.10
2018-02-08T06:35:01.275Z,-4.04
2018-02-08T06:37:28.797Z,-4.06
2018-02-08T06:39:56.352Z,-4.02
2018-02-08T06:42:23.877Z,-4.02
2018-02-08T06:44:51.454Z,-4.00
2018-02-08T06:47:18.924Z,-4.01
2018-02-08T06:49:46.448Z,-3.99
2018-02-08T06:52:13.937Z,-3.98
2018-02-08T06:54:41.509Z,-4.01
2018-02-08T06:57:09.069Z,-4.01
2018-02-08T06:59:36.606Z,-4.06
2018-02-08T07:02:04.142Z,-4.11
2018-02-08T07:04:31.682Z,-4.07
2018-02-08T07:06:59.200Z,-4.08
2018-02-08T07:09:26.740Z,-4.25
2018-02-08T07:11:54.268Z,-4.22
2018-02-08T07:14:21.782Z,-4.26
2018-02-08T07:16:49.318Z,-4.19
2018-02-08T07:19:16.879Z,-4.08
2018-02-08T07:21:44.400Z,-4.09
2018-02-08T07:24:11.925Z,-3.97
2018-02-08T07:26:40.194Z,-3.95
2018-02-08T07:29:07.723Z,-4.04
2018-02-08T07:31:35.270Z,-4.00
2018-02-08T07:34:02.800Z,-3.96
2018-02-08T07:36:30.377Z,-3.82
2018-02-08T07:38:57.943Z,-3.75
2018-02-08T07:41:25.436Z,-3.62
2018-02-08T07:43:52.977Z,-3.36
2018-02-08T07:46:20.510Z,-3.27
2018-02-08T07:48:48.065Z,-3.07
2018-02-08T07:51:15.701Z,-2.81
2018-02-08T07:53:43.212Z,-2.58
2018-02-08T07:56:10.756Z,-2.41
2018-02-08T07:58:38.325Z,-2.30
2018-02-08T08:01:05.830Z,-2.21
2018-02-08T08:03:33.337Z,-1.94
2018-02-08T08:06:00.898Z,-1.94
2018-02-08T08:08:28.419Z,-1.63
2018-02-08T08:10:56.321Z,-1.53
2018-02-08T08:13:23.846Z,-1.33
2018-02-08T08:15:51.408Z,-0.82
2018-02-08T08:18:18.932Z,-0.86
2018-02-08T08:20:46.445Z,-0.74
2018-02-08T08:23:13.983Z,-0.39
2018-02-08T08:25:41.486Z,-0.43
2018-02-08T08:28:08.989Z,0.15
2018-02-08T08:30:36.529Z,0.61
2018-02-08T08:33:04.064Z,0.70
2018-02-08T08:35:31.579Z,0.93
2018-02-08T08:37:59.095Z,1.34
2018-02-08T08:40:26.685Z,0.62
2018-02-08T08:42:54.180Z,1.49
2018-02-08T08:45:21.705Z,1.93
2018-02-08T08:47:49.210Z,0.91
2018-02-08T08:50:16.705Z,0.75
2018-02-08T08:52:44.226Z,1.23
2018-02-08T08:55:11.731Z,1.41
2018-02-08T08:57:39.217Z,0.92
2018-02-08T09:00:06.744Z,1.06
2018-02-08T09:02:34.232Z,1.17
2018-02-08T09:05:01.732Z,1.48
2018-02-08T09:07:29.232Z,2.26
2018-02-08T09:09:56.741Z,2.64
2018-02-08T09:12:24.271Z,2.89
2018-02-08T09:14:51.778Z,3.39
2018-02-08T09:17:19.280Z,3.19
2018-02-08T09:19:46.800Z,3.44
2018-02-08T09:22:14.325Z,3.11
2018-02-08T09:24:41.857Z,4.06
2018-02-08T09:27:09.358Z,3.81
2018-02-08T09:29:36.884Z,3.24
2018-02-08T09:32:04.412Z,2.84
2018-02-08T09:34:31.950Z,2.97
2018-02-08T09:36:59.530Z,2.28
2018-02-08T09:39:27.108Z,2.21
2018-02-08T09:41:54.624Z,2.66
2018-02-08T09:44:22.165Z,2.58
2018-02-08T09:46:49.669Z,2.57
2018-02-08T09:49:17.193Z,2.89
2018-02-08T09:51:51.512Z,3.97
2018-02-08T09:54:19.113Z,4.26
2018-02-08T09:56:46.651Z,4.46
2018-02-08T09:59:14.141Z,4.16
2018-02-08T10:01:41.644Z,4.29
2018-02-08T10:04:09.169Z,4.26
2018-02-08T10:06:36.693Z,4.96
2018-02-08T10:09:04.221Z,4.52
2018-02-08T10:11:32.323Z,4.03
2018-02-08T10:13:59.845Z,4.52
2018-02-08T10:16:27.382Z,4.55
2018-02-08T10:18:54.895Z,4.34
2018-02-08T10:21:22.454Z,4.26
2018-02-08T10:23:50.010Z,4.09
2018-02-08T10:26:17.580Z,3.55
2018-02-08T10:28:45.092Z,3.13
2018-02-08T10:31:12.569Z,3.17
2018-02-08T10:33:40.278Z,2.82
2018-02-08T10:36:08.527Z,2.39
2018-02-08T10:38:36.059Z,2.58
2018-02-08T10:41:03.878Z,2.13
2018-02-08T10:43:31.434Z,1.99
2018-02-08T10:45:59.243Z,2.19
2018-02-08T10:48:27.546Z,2.28
2018-02-08T10:50:55.182Z,1.75
2018-02-08T10:53:22.702Z,1.80
2018-02-08T10:55:50.200Z,1.53
2018-02-08T10:58:17.698Z,1.18
2018-02-08T11:00:45.240Z,1.58
2018-02-08T11:03:12.926Z,1.79
2018-02-08T11:05:40.440Z,1.74
2018-02-08T11:08:07.977Z,1.96
2018-02-08T11:10:35.580Z,1.82
2018-02-08T11:13:03.112Z,1.81
2018-02-08T11:15:30.622Z,1.80
2018-02-08T11:17:58.117Z,1.28
2018-02-08T11:20:25.640Z,1.15
2018-02-08T11:22:53.131Z,1.42
2018-02-08T11:25:20.687Z,1.70
2018-02-08T11:27:48.213Z,1.85
2018-02-08T11:30:15.719Z,1.84
2018-02-08T11:32:43.229Z,1.68
2018-02-08T11:35:10.785Z,1.14
2018-02-08T11:37:38.273Z,1.17
2018-02-08T11:40:05.763Z,0.96
2018-02-08T11:42:33.315Z,1.16
2018-02-08T11:45:00.982Z,1.55
2018-02-08T11:47:28.473Z,1.70
2018-02-08T11:49:55.997Z,1.70
2018-02-08T11:52:23.550Z,1.84
2018-02-08T11:54:51.182Z,1.72
2018-02-08T11:57:18.716Z,1.69
2018-02-08T11:59:46.281Z,1.80
2018-02-08T12:02:13.790Z,1.61
2018-02-08T12:04:41.310Z,1.57
2018-02-08T12:07:08.848Z,1.62
2018-02-08T12:09:36.484Z,1.65
2018-02-08T12:12:04.191Z,1.90
2018-02-08T12:14:31.933Z,2.01
2018-02-08T12:16:59.432Z,2.08
2018-02-08T12:19:26.967Z,2.15
2018-02-08T12:21:54.634Z,2.02
2018-02-08T12:24:22.133Z,1.86
2018-02-08T12:26:49.728Z,1.78
2018-02-08T12:29:17.478Z,1.92
2018-02-08T12:31:44.980Z,1.87
2018-02-08T12:34:12.537Z,1.88
2018-02-08T12:36:40.339Z,2.00
2018-02-08T12:39:07.861Z,2.11
2018-02-08T12:41:35.512Z,1.94
2018-02-08T12:44:03.182Z,1.87
2018-02-08T12:46:30.670Z,2.07
2018-02-08T12:48:58.913Z,1.90
2018-02-08T12:51:26.468Z,1.95
2018-02-08T12:53:53.962Z,1.87
2018-02-08T12:56:21.518Z,1.95
2018-02-08T12:58:49.059Z,2.16
2018-02-08T13:01:16.581Z,2.04
2018-02-08T13:03:44.104Z,2.08
2018-02-08T13:06:11.634Z,2.18
2018-02-08T13:08:39.133Z,2.30
2018-02-08T13:11:06.666Z,2.44
2018-02-08T13:13:34.195Z,2.33
2018-02-08T13:16:01.686Z,2.26
2018-02-08T13:18:32.122Z,2.06
2018-02-08T13:20:59.633Z,2.19
2018-02-08T13:23:27.268Z,2.31
2018-02-08T13:25:54.796Z,2.32
2018-02-08T13:28:22.313Z,2.27
2018-02-08T13:30:49.863Z,2.20
2018-02-08T13:33:17.355Z,2.02
2018-02-08T13:35:44.890Z,2.00
2018-02-08T13:38:12.428Z,2.21
2018-02-08T13:40:47.336Z,2.21
2018-02-08T13:43:14.847Z,2.11
2018-02-08T13:45:42.375Z,2.18
2018-02-08T13:48:11.892Z,2.21
2018-02-08T13:50:39.377Z,2.13
2018-02-08T13:53:12.471Z,2.05
2018-02-08T13:58:56.014Z,1.95
2018-02-08T14:01:25.736Z,1.82
2018-02-08T14:03:53.273Z,1.68
2018-02-08T14:06:20.748Z,1.68
2018-02-08T14:08:48.221Z,1.61
2018-02-08T14:11:15.722Z,1.42
2018-02-08T14:13:43.283Z,1.53
2018-02-08T14:16:10.796Z,1.52
2018-02-08T14:18:38.468Z,1.47
2018-02-08T14:21:05.956Z,1.40
2018-02-08T14:23:33.455Z,1.60
2018-02-08T14:26:00.986Z,1.59
2018-02-08T14:28:28.529Z,1.48
2018-02-08T14:30:56.094Z,1.56
2018-02-08T14:33:23.607Z,1.57
2018-02-08T14:35:51.110Z,1.46
2018-02-08T14:38:18.690Z,1.62
2018-02-08T14:40:46.205Z,1.63
2018-02-08T14:43:13.702Z,1.53
2018-02-08T14:45:41.240Z,1.60
2018-02-08T14:48:08.740Z,1.51
2018-02-08T14:50:36.315Z,1.39
2018-02-08T14:53:03.827Z,1.23
2018-02-08T14:55:31.389Z,1.20
2018-02-08T14:57:58.935Z,1.14
2018-02-08T15:00:26.484Z,1.15
2018-02-08T15:02:54.051Z,1.19
2018-02-08T15:05:21.562Z,1.18
2018-02-08T15:07:49.116Z,1.31
2018-02-08T15:10:16.669Z,1.29
2018-02-08T15:12:44.266Z,1.17
2018-02-08T15:15:11.775Z,0.97
2018-02-08T15:17:39.315Z,1.13
2018-02-08T15:20:06.935Z,0.94
2018-02-08T15:22:34.427Z,0.95
2018-02-08T15:25:02.000Z,0.95
2018-02-08T15:27:29.548Z,0.92
2018-02-08T15:29:57.104Z,0.97
2018-02-08T15:32:24.639Z,1.02
2018-02-08T15:34:52.249Z,0.86
2018-02-08T15:37:19.770Z,0.81
2018-02-08T15:39:47.317Z,0.70
2018-02-08T15:42:14.821Z,0.66
2018-02-08T15:44:42.437Z,0.66
2018-02-08T15:47:09.962Z,0.65
2018-02-08T15:49:37.466Z,0.71
2018-02-08T15:52:04.988Z,0.66
2018-02-08T15:54:32.524Z,0.66
2018-02-08T15:57:00.033Z,0.62
2018-02-08T15:59:27.545Z,0.56
2018-02-08T16:01:55.151Z,0.55
2018-02-08T16:04:22.771Z,0.50
2018-02-08T16:06:50.296Z,0.47
2018-02-08T16:09:17.952Z,0.41
2018-02-08T16:11:45.626Z,0.39
2018-02-08T16:14:13.122Z,0.39
2018-02-08T16:16:40.666Z,0.25
2018-02-08T16:19:08.209Z,0.19
2018-02-08T16:21:35.739Z,0.22
2018-02-08T16:24:03.326Z,0.21
2018-02-08T16:26:30.854Z,0.17
2018-02-08T16:28:58.349Z,0.15
2018-02-08T16:31:25.856Z,0.13
2018-02-08T16:33:54.166Z,0.08
2018-02-08T16:36:21.671Z,0.05
2018-02-08T16:38:49.216Z,-0.05
2018-02-08T16:41:16.758Z,-0.08
2018-02-08T16:43:44.305Z,-0.09
2018-02-08T16:46:11.860Z,-0.05
2018-02-08T16:48:39.402Z,-0.06
2018-02-08T16:51:06.988Z,-0.12
2018-02-08T16:53:34.800Z,-0.14
2018-02-08T16:56:02.605Z,-0.14
2018-02-08T16:58:30.174Z,-0.18
2018-02-08T17:00:57.736Z,-0.17
2018-02-08T17:03:25.363Z,-0.24
2018-02-08T17:05:52.859Z,-0.29
2018-02-08T17:08:20.376Z,-0.30
2018-02-08T17:10:47.917Z,-0.34
2018-02-08T17:13:15.440Z,-0.35
2018-02-08T17:15:42.979Z,-0.38
2018-02-08T17:18:10.485Z,-0.43
2018-02-08T17:20:38.316Z,-0.43
2018-02-08T17:23:05.841Z,-0.44
2018-02-08T17:25:33.395Z,-0.51
2018-02-08T17:28:00.946Z,-0.49
2018-02-08T17:30:28.462Z,-0.53
2018-02-08T17:32:56.316Z,-0.56
2018-02-08T17:35:23.909Z,-0.51
2018-02-08T17:37:51.439Z,-0.48
2018-02-08T17:40:19.064Z,-0.52
2018-02-08T17:42:46.615Z,-0.56
2018-02-08T17:45:14.125Z,-0.51
2018-02-08T17:47:44.826Z,-0.55
2018-02-08T17:50:12.775Z,-0.56
2018-02-08T17:52:40.319Z,-0.54
2018-02-08T17:55:07.875Z,-0.53
2018-02-08T17:57:35.431Z,-0.57
2018-02-08T18:00:02.980Z,-0.60
2018-02-08T18:02:30.555Z,-0.57
2018-02-08T18:04:58.104Z,-0.62
2018-02-08T18:07:25.618Z,-0.64
2018-02-08T18:09:53.152Z,-0.64
2018-02-08T18:12:20.661Z,-0.65
2018-02-08T18:14:48.208Z,-0.62
2018-02-08T18:17:15.798Z,-0.68
2018-02-08T18:19:43.451Z,-0.72
2018-02-08T18:22:10.983Z,-0.78
2018-02-08T18:24:38.493Z,-0.80
2018-02-08T18:27:06.054Z,-0.85
2018-02-08T18:29:33.574Z,-0.88
2018-02-08T18:32:01.669Z,-0.93
2018-02-08T18:34:29.227Z,-0.91
2018-02-08T18:36:56.740Z,-1.00
2018-02-08T18:39:24.230Z,-1.00
2018-02-08T18:41:52.080Z,-1.04
2018-02-08T18:44:19.777Z,-1.08
2018-02-08T18:46:48.687Z,-1.09
2018-02-08T18:49:16.428Z,-1.09
2018-02-08T18:51:45.549Z,-1.16
2018-02-08T18:54:13.482Z,-1.14
2018-02-08T18:56:41.023Z,-1.17
2018-02-08T18:59:08.560Z,-1.19
2018-02-08T19:01:36.098Z,-1.21
2018-02-08T19:04:04.504Z,-1.28
2018-02-08T19:06:32.625Z,-1.23
2018-02-08T19:09:00.164Z,-1.29
2018-02-08T19:11:27.668Z,-1.31
2018-02-08T19:13:55.382Z,-1.34
2018-02-08T19:16:22.917Z,-1.28
2018-02-08T19:18:51.109Z,-1.37
2018-02-08T19:21:18.673Z,-1.33
2018-02-08T19:23:46.503Z,-1.32
2018-02-08T19:26:14.368Z,-1.35
2018-02-08T19:28:41.993Z,-1.38
2018-02-08T19:31:09.551Z,-1.41
2018-02-08T19:33:37.075Z,-1.40
2018-02-08T19:36:04.638Z,-1.42
2018-02-08T19:38:32.890Z,-1.40
2018-02-08T19:41:00.404Z,-1.49
2018-02-08T19:43:27.968Z,-1.46
2018-02-08T19:45:55.465Z,-1.51
2018-02-08T19:48:22.997Z,-1.47
2018-02-08T19:50:50.596Z,-1.49
2018-02-08T19:53:18.162Z,-1.50
2018-02-08T19:55:45.691Z,-1.58
2018-02-08T19:58:13.236Z,-1.56
2018-02-08T20:00:40.774Z,-1.58
2018-02-08T20:03:08.840Z,-1.55
2018-02-08T20:05:36.617Z,-1.56
2018-02-08T20:08:04.125Z,-1.52
2018-02-08T20:10:31.653Z,-1.59
2018-02-08T20:12:59.142Z,-1.59
2018-02-08T20:15:37.460Z,-1.60
2018-02-08T20:18:05.052Z,-1.69
2018-02-08T20:20:32.605Z,-1.68
2018-02-08T20:23:00.136Z,-1.72
2018-02-08T20:25:33.219Z,-1.80
2018-02-08T20:28:00.772Z,-1.83
2018-02-08T20:30:28.344Z,-1.83
2018-02-08T20:32:55.937Z,-1.83
2018-02-08T20:35:23.489Z,-1.86
2018-02-08T20:37:51.005Z,-1.86
2018-02-08T20:40:32.659Z,-1.92
2018-02-08T20:43:05.836Z,-1.89
2018-02-08T20:45:33.440Z,-1.87
2018-02-08T20:48:01.024Z,-1.86
2018-02-08T20:50:28.546Z,-1.86
2018-02-08T20:52:56.144Z,-1.86
2018-02-08T20:55:23.723Z,-1.85
2018-02-08T20:57:51.278Z,-1.86
2018-02-08T21:00:18.870Z,-1.88
2018-02-08T21:02:46.391Z,-1.93
2018-02-08T21:05:13.968Z,-2.01
2018-02-08T21:07:41.471Z,-1.99
2018-02-08T21:10:09.023Z,-2.01
2018-02-08T21:12:36.548Z,-1.96
2018-02-08T21:15:04.159Z,-1.98
2018-02-08T21:17:31.825Z,-1.95
2018-02-08T21:19:59.378Z,-2.02
2018-02-08T21:22:26.865Z,-2.01
2018-02-08T21:24:54.430Z,-2.04
2018-02-08T21:27:21.979Z,-2.06
2018-02-08T21:29:49.593Z,-2.02
2018-02-08T21:32:17.114Z,-2.08
2018-02-08T21:34:44.673Z,-2.06
2018-02-08T21:37:12.189Z,-2.11
2018-02-08T21:39:39.740Z,-2.06
2018-02-08T21:42:07.383Z,-2.05
2018-02-08T21:44:34.909Z,-2.06
2018-02-08T21:47:02.454Z,-2.11
2018-02-08T21:49:29.974Z,-2.14
2018-02-08T21:51:57.509Z,-2.21
2018-02-08T21:54:25.083Z,-2.22
2018-02-08T21:56:52.669Z,-2.25
2018-02-08T21:59:20.211Z,-2.28
2018-02-08T22:01:47.788Z,-2.29
2018-02-08T22:04:15.386Z,-2.31
2018-02-08T22:06:42.906Z,-2.34
2018-02-08T22:09:10.465Z,-2.35
2018-02-08T22:11:37.973Z,-2.35
2018-02-08T22:14:05.504Z,-2.34
2018-02-08T22:16:33.024Z,-2.31
2018-02-08T22:19:00.648Z,-2.34
2018-02-08T22:21:28.236Z,-2.39
2018-02-08T22:23:56.504Z,-2.42
2018-02-08T22:26:24.044Z,-2.44
2018-02-08T22:28:51.553Z,-2.45
2018-02-08T22:31:19.065Z,-2.50
2018-02-08T22:33:46.630Z,-2.52
2018-02-08T22:36:14.149Z,-2.61
2018-02-08T22:38:47.735Z,-2.55
2018-02-08T22:41:15.264Z,-2.60
2018-02-08T22:43:42.802Z,-2.64
2018-02-08T22:46:10.363Z,-2.63
2018-02-08T22:48:37.982Z,-2.71
2018-02-08T22:51:05.580Z,-2.73
2018-02-08T22:53:33.127Z,-2.73
2018-02-08T22:56:00.674Z,-2.70
2018-02-08T22:58:28.252Z,-2.73
2018-02-08T23:00:55.777Z,-2.78
2018-02-08T23:03:23.303Z,-2.74
2018-02-08T23:05:50.836Z,-2.73
2018-02-08T23:08:18.390Z,-2.80
2018-02-08T23:10:46.016Z,-2.83
2018-02-08T23:13:13.584Z,-2.86
2018-02-08T23:15:41.077Z,-2.87
2018-02-08T23:18:08.642Z,-2.83
2018-02-08T23:20:36.306Z,-2.89
2018-02-08T23:23:03.849Z,-2.89
2018-02-08T23:25:31.536Z,-2.91
2018-02-08T23:27:59.280Z,-3.01
2018-02-08T23:30:27.376Z,-2.94
2018-02-08T23:32:54.870Z,-2.91
2018-02-08T23:35:22.386Z,-2.93
2018-02-08T23:37:50.349Z,-2.86
2018-02-08T23:40:17.950Z,-2.93
2018-02-08T23:42:45.520Z,-2.99
2018-02-08T23:45:13.105Z,-3.03
2018-02-08T23:47:40.666Z,-3.06
2018-02-08T23:50:08.395Z,-2.99
2018-02-08T23:52:36.016Z,-3.00
2018-02-08T23:55:03.718Z,-2.96
2018-02-08T23:57:31.282Z,-2.95
2018-02-08T23:59:58.821Z,-2.96
